sensor_id;sensor_type;location;lat;lon;timestamp;P1;durP1;ratioP1;P2;durP2;ratioP2
15381;SDS011;7789;51.364;12.358;2024-01-30T00:04:02;5.03;;;3.10;;
15381;SDS011;7789;51.364;12.358;2024-01-30T00:09:05;6.43;;;2.93;;
15381;SDS011;7789;51.364;12.358;2024-01-30T00:14:11;6.17;;;3.47;;
15381;SDS011;7789;51.364;12.358;2024-01-30T00:19:16;3.87;;;2.87;;
15381;SDS011;7789;51.364;12.358;2024-01-30T00:24:19;4.40;;;2.80;;
15381;SDS011;7789;51.364;12.358;2024-01-30T00:29:24;4.30;;;2.90;;
15381;SDS011;7789;51.364;12.358;2024-01-30T00:34:32;4.37;;;2.60;;
15381;SDS011;7789;51.364;12.358;2024-01-30T00:39:35;4.37;;;2.80;;
15381;SDS011;7789;51.364;12.358;2024-01-30T00:44:40;4.67;;;2.93;;
15381;SDS011;7789;51.364;12.358;2024-01-30T00:49:44;5.07;;;2.80;;
15381;SDS011;7789;51.364;12.358;2024-01-30T00:54:47;4.33;;;2.60;;
15381;SDS011;7789;51.364;12.358;2024-01-30T00:59:52;3.20;;;2.37;;
15381;SDS011;7789;51.364;12.358;2024-01-30T01:04:56;6.50;;;2.63;;
15381;SDS011;7789;51.364;12.358;2024-01-30T01:10:01;3.87;;;2.40;;
15381;SDS011;7789;51.364;12.358;2024-01-30T01:15:10;4.13;;;2.67;;
15381;SDS011;7789;51.364;12.358;2024-01-30T01:20:22;5.23;;;2.73;;
15381;SDS011;7789;51.364;12.358;2024-01-30T01:25:28;3.53;;;2.30;;
15381;SDS011;7789;51.364;12.358;2024-01-30T01:30:38;5.27;;;2.67;;
15381;SDS011;7789;51.364;12.358;2024-01-30T01:35:42;5.73;;;2.17;;
15381;SDS011;7789;51.364;12.358;2024-01-30T01:40:45;5.07;;;2.73;;
15381;SDS011;7789;51.364;12.358;2024-01-30T01:45:50;3.70;;;2.33;;
15381;SDS011;7789;51.364;12.358;2024-01-30T01:50:53;3.87;;;2.40;;
15381;SDS011;7789;51.364;12.358;2024-01-30T01:55:57;4.33;;;2.83;;
15381;SDS011;7789;51.364;12.358;2024-01-30T02:01:02;4.20;;;2.40;;
15381;SDS011;7789;51.364;12.358;2024-01-30T02:06:07;4.30;;;2.83;;
15381;SDS011;7789;51.364;12.358;2024-01-30T02:11:14;6.33;;;2.63;;
15381;SDS011;7789;51.364;12.358;2024-01-30T02:16:22;4.93;;;2.90;;
15381;SDS011;7789;51.364;12.358;2024-01-30T02:21:33;5.07;;;2.80;;
15381;SDS011;7789;51.364;12.358;2024-01-30T02:26:36;5.10;;;3.03;;
15381;SDS011;7789;51.364;12.358;2024-01-30T02:31:40;5.03;;;3.17;;
15381;SDS011;7789;51.364;12.358;2024-01-30T02:36:44;4.80;;;2.37;;
15381;SDS011;7789;51.364;12.358;2024-01-30T02:41:49;5.70;;;2.70;;
15381;SDS011;7789;51.364;12.358;2024-01-30T02:46:52;3.60;;;2.63;;
15381;SDS011;7789;51.364;12.358;2024-01-30T02:51:58;3.20;;;2.27;;
15381;SDS011;7789;51.364;12.358;2024-01-30T02:57:01;3.37;;;2.33;;
15381;SDS011;7789;51.364;12.358;2024-01-30T03:02:05;3.53;;;2.23;;
15381;SDS011;7789;51.364;12.358;2024-01-30T03:07:10;3.80;;;2.93;;
15381;SDS011;7789;51.364;12.358;2024-01-30T03:12:13;4.57;;;2.57;;
15381;SDS011;7789;51.364;12.358;2024-01-30T03:17:17;3.30;;;2.43;;
15381;SDS011;7789;51.364;12.358;2024-01-30T03:22:22;3.87;;;2.50;;
15381;SDS011;7789;51.364;12.358;2024-01-30T03:27:25;4.33;;;2.50;;
15381;SDS011;7789;51.364;12.358;2024-01-30T03:32:29;3.20;;;2.20;;
15381;SDS011;7789;51.364;12.358;2024-01-30T03:37:34;4.67;;;2.87;;
15381;SDS011;7789;51.364;12.358;2024-01-30T03:42:37;5.73;;;2.73;;
15381;SDS011;7789;51.364;12.358;2024-01-30T03:47:43;4.97;;;2.70;;
15381;SDS011;7789;51.364;12.358;2024-01-30T03:52:48;4.87;;;2.73;;
15381;SDS011;7789;51.364;12.358;2024-01-30T03:57:51;5.30;;;3.07;;
15381;SDS011;7789;51.364;12.358;2024-01-30T04:02:54;5.47;;;3.37;;
15381;SDS011;7789;51.364;12.358;2024-01-30T04:07:59;7.43;;;3.70;;
15381;SDS011;7789;51.364;12.358;2024-01-30T04:13:03;4.17;;;3.10;;
15381;SDS011;7789;51.364;12.358;2024-01-30T04:18:10;3.60;;;2.90;;
15381;SDS011;7789;51.364;12.358;2024-01-30T04:23:15;4.87;;;3.47;;
15381;SDS011;7789;51.364;12.358;2024-01-30T04:28:18;4.13;;;2.93;;
15381;SDS011;7789;51.364;12.358;2024-01-30T04:33:21;5.60;;;3.27;;
15381;SDS011;7789;51.364;12.358;2024-01-30T04:38:27;8.43;;;3.37;;
15381;SDS011;7789;51.364;12.358;2024-01-30T04:43:30;4.10;;;3.07;;
15381;SDS011;7789;51.364;12.358;2024-01-30T04:48:33;4.23;;;3.13;;
15381;SDS011;7789;51.364;12.358;2024-01-30T04:53:38;4.37;;;3.23;;
15381;SDS011;7789;51.364;12.358;2024-01-30T04:58:42;5.90;;;3.23;;
15381;SDS011;7789;51.364;12.358;2024-01-30T05:03:45;5.93;;;2.97;;
15381;SDS011;7789;51.364;12.358;2024-01-30T05:08:50;4.83;;;3.27;;
15381;SDS011;7789;51.364;12.358;2024-01-30T05:13:54;5.53;;;3.53;;
15381;SDS011;7789;51.364;12.358;2024-01-30T05:18:57;5.23;;;3.33;;
15381;SDS011;7789;51.364;12.358;2024-01-30T05:24:05;5.10;;;3.50;;
15381;SDS011;7789;51.364;12.358;2024-01-30T05:29:11;5.37;;;3.20;;
15381;SDS011;7789;51.364;12.358;2024-01-30T05:34:14;4.57;;;3.00;;
15381;SDS011;7789;51.364;12.358;2024-01-30T05:39:19;5.23;;;2.93;;
15381;SDS011;7789;51.364;12.358;2024-01-30T05:44:23;5.00;;;3.30;;
15381;SDS011;7789;51.364;12.358;2024-01-30T05:49:26;6.10;;;3.00;;
15381;SDS011;7789;51.364;12.358;2024-01-30T05:54:31;4.37;;;3.03;;
15381;SDS011;7789;51.364;12.358;2024-01-30T05:59:34;3.93;;;3.00;;
15381;SDS011;7789;51.364;12.358;2024-01-30T06:04:42;7.63;;;3.43;;
15381;SDS011;7789;51.364;12.358;2024-01-30T06:09:48;9.73;;;3.47;;
15381;SDS011;7789;51.364;12.358;2024-01-30T06:14:51;4.23;;;2.90;;
15381;SDS011;7789;51.364;12.358;2024-01-30T06:19:58;4.83;;;3.27;;
15381;SDS011;7789;51.364;12.358;2024-01-30T06:25:08;6.40;;;3.50;;
15381;SDS011;7789;51.364;12.358;2024-01-30T06:30:14;5.53;;;3.40;;
15381;SDS011;7789;51.364;12.358;2024-01-30T06:35:18;7.33;;;3.40;;
15381;SDS011;7789;51.364;12.358;2024-01-30T06:40:24;6.27;;;3.40;;
15381;SDS011;7789;51.364;12.358;2024-01-30T06:45:27;7.50;;;3.17;;
15381;SDS011;7789;51.364;12.358;2024-01-30T06:50:35;7.03;;;3.63;;
15381;SDS011;7789;51.364;12.358;2024-01-30T06:55:39;4.37;;;3.10;;
15381;SDS011;7789;51.364;12.358;2024-01-30T07:00:44;6.13;;;3.77;;
15381;SDS011;7789;51.364;12.358;2024-01-30T07:05:50;5.57;;;3.50;;
15381;SDS011;7789;51.364;12.358;2024-01-30T07:10:55;7.63;;;3.87;;
15381;SDS011;7789;51.364;12.358;2024-01-30T07:16:01;8.73;;;3.50;;
15381;SDS011;7789;51.364;12.358;2024-01-30T07:21:05;4.87;;;3.67;;
15381;SDS011;7789;51.364;12.358;2024-01-30T07:26:10;6.63;;;3.70;;
15381;SDS011;7789;51.364;12.358;2024-01-30T07:31:14;5.00;;;3.57;;
15381;SDS011;7789;51.364;12.358;2024-01-30T07:36:17;5.47;;;3.87;;
15381;SDS011;7789;51.364;12.358;2024-01-30T07:41:24;5.30;;;3.30;;
15381;SDS011;7789;51.364;12.358;2024-01-30T07:46:27;8.67;;;3.73;;
15381;SDS011;7789;51.364;12.358;2024-01-30T07:51:31;5.00;;;3.07;;
15381;SDS011;7789;51.364;12.358;2024-01-30T07:56:36;5.63;;;3.63;;
15381;SDS011;7789;51.364;12.358;2024-01-30T08:01:40;5.10;;;3.37;;
15381;SDS011;7789;51.364;12.358;2024-01-30T08:06:43;7.80;;;3.77;;
15381;SDS011;7789;51.364;12.358;2024-01-30T08:11:48;5.53;;;3.57;;
15381;SDS011;7789;51.364;12.358;2024-01-30T08:16:52;7.37;;;3.87;;
15381;SDS011;7789;51.364;12.358;2024-01-30T08:21:55;7.87;;;3.80;;
15381;SDS011;7789;51.364;12.358;2024-01-30T08:27:00;5.90;;;3.40;;
15381;SDS011;7789;51.364;12.358;2024-01-30T08:32:05;9.07;;;3.53;;
15381;SDS011;7789;51.364;12.358;2024-01-30T08:37:09;8.40;;;3.57;;
15381;SDS011;7789;51.364;12.358;2024-01-30T08:42:14;5.50;;;3.93;;
15381;SDS011;7789;51.364;12.358;2024-01-30T08:47:20;4.33;;;3.20;;
15381;SDS011;7789;51.364;12.358;2024-01-30T08:52:23;5.17;;;3.70;;
15381;SDS011;7789;51.364;12.358;2024-01-30T08:57:28;5.23;;;3.70;;
15381;SDS011;7789;51.364;12.358;2024-01-30T09:02:32;4.93;;;3.60;;
15381;SDS011;7789;51.364;12.358;2024-01-30T09:07:35;6.03;;;3.70;;
15381;SDS011;7789;51.364;12.358;2024-01-30T09:12:40;6.33;;;4.20;;
15381;SDS011;7789;51.364;12.358;2024-01-30T09:17:44;7.20;;;3.43;;
15381;SDS011;7789;51.364;12.358;2024-01-30T09:22:48;7.53;;;3.53;;
15381;SDS011;7789;51.364;12.358;2024-01-30T09:27:53;5.37;;;3.67;;
15381;SDS011;7789;51.364;12.358;2024-01-30T09:32:56;6.03;;;3.90;;
15381;SDS011;7789;51.364;12.358;2024-01-30T09:38:01;8.10;;;3.80;;
15381;SDS011;7789;51.364;12.358;2024-01-30T09:43:06;6.40;;;3.87;;
15381;SDS011;7789;51.364;12.358;2024-01-30T09:48:10;5.83;;;4.00;;
15381;SDS011;7789;51.364;12.358;2024-01-30T09:53:14;6.03;;;3.93;;
15381;SDS011;7789;51.364;12.358;2024-01-30T09:58:21;5.37;;;3.47;;
15381;SDS011;7789;51.364;12.358;2024-01-30T10:03:24;6.37;;;4.23;;
15381;SDS011;7789;51.364;12.358;2024-01-30T10:08:28;5.70;;;3.50;;
15381;SDS011;7789;51.364;12.358;2024-01-30T10:13:34;7.30;;;3.93;;
15381;SDS011;7789;51.364;12.358;2024-01-30T10:18:37;6.57;;;3.67;;
15381;SDS011;7789;51.364;12.358;2024-01-30T10:23:45;7.43;;;4.60;;
15381;SDS011;7789;51.364;12.358;2024-01-30T10:28:50;6.17;;;3.90;;
15381;SDS011;7789;51.364;12.358;2024-01-30T10:33:53;7.70;;;3.57;;
15381;SDS011;7789;51.364;12.358;2024-01-30T10:39:12;7.50;;;4.30;;
15381;SDS011;7789;51.364;12.358;2024-01-30T10:44:21;6.37;;;3.50;;
15381;SDS011;7789;51.364;12.358;2024-01-30T10:49:25;6.13;;;4.17;;
15381;SDS011;7789;51.364;12.358;2024-01-30T10:54:29;8.40;;;4.07;;
15381;SDS011;7789;51.364;12.358;2024-01-30T10:59:39;7.43;;;4.13;;
15381;SDS011;7789;51.364;12.358;2024-01-30T11:04:45;6.17;;;3.83;;
15381;SDS011;7789;51.364;12.358;2024-01-30T11:09:50;6.40;;;4.00;;
15381;SDS011;7789;51.364;12.358;2024-01-30T11:15:06;7.77;;;4.10;;
15381;SDS011;7789;51.364;12.358;2024-01-30T11:20:11;6.83;;;4.20;;
15381;SDS011;7789;51.364;12.358;2024-01-30T11:25:17;5.77;;;4.30;;
15381;SDS011;7789;51.364;12.358;2024-01-30T11:30:25;6.53;;;4.20;;
15381;SDS011;7789;51.364;12.358;2024-01-30T11:35:29;6.27;;;4.37;;
15381;SDS011;7789;51.364;12.358;2024-01-30T11:40:36;7.13;;;4.20;;
15381;SDS011;7789;51.364;12.358;2024-01-30T11:45:42;4.63;;;3.70;;
15381;SDS011;7789;51.364;12.358;2024-01-30T11:50:46;6.63;;;3.80;;
15381;SDS011;7789;51.364;12.358;2024-01-30T11:55:51;6.47;;;3.97;;
15381;SDS011;7789;51.364;12.358;2024-01-30T12:00:56;6.20;;;3.88;;
15381;SDS011;7789;51.364;12.358;2024-01-30T12:05:59;7.87;;;4.50;;
15381;SDS011;7789;51.364;12.358;2024-01-30T12:11:06;5.47;;;4.13;;
15381;SDS011;7789;51.364;12.358;2024-01-30T12:16:11;7.57;;;4.20;;
15381;SDS011;7789;51.364;12.358;2024-01-30T12:21:16;5.45;;;3.72;;
15381;SDS011;7789;51.364;12.358;2024-01-30T12:26:20;7.68;;;4.20;;
15381;SDS011;7789;51.364;12.358;2024-01-30T12:31:28;7.57;;;3.80;;
15381;SDS011;7789;51.364;12.358;2024-01-30T12:36:35;5.35;;;3.58;;
15381;SDS011;7789;51.364;12.358;2024-01-30T12:41:38;6.68;;;3.55;;
15381;SDS011;7789;51.364;12.358;2024-01-30T12:46:44;6.25;;;4.15;;
15381;SDS011;7789;51.364;12.358;2024-01-30T12:51:50;7.07;;;4.13;;
15381;SDS011;7789;51.364;12.358;2024-01-30T12:56:57;6.15;;;3.97;;
15381;SDS011;7789;51.364;12.358;2024-01-30T13:02:03;5.13;;;3.55;;
15381;SDS011;7789;51.364;12.358;2024-01-30T13:07:06;5.32;;;3.65;;
15381;SDS011;7789;51.364;12.358;2024-01-30T13:12:10;8.07;;;3.88;;
15381;SDS011;7789;51.364;12.358;2024-01-30T13:17:22;5.20;;;3.22;;
15381;SDS011;7789;51.364;12.358;2024-01-30T13:22:25;5.63;;;3.60;;
15381;SDS011;7789;51.364;12.358;2024-01-30T13:27:29;8.35;;;3.80;;
15381;SDS011;7789;51.364;12.358;2024-01-30T13:32:34;5.00;;;3.55;;
15381;SDS011;7789;51.364;12.358;2024-01-30T13:37:38;8.10;;;3.97;;
15381;SDS011;7789;51.364;12.358;2024-01-30T13:42:43;5.55;;;3.92;;
15381;SDS011;7789;51.364;12.358;2024-01-30T13:47:48;8.27;;;3.83;;
15381;SDS011;7789;51.364;12.358;2024-01-30T13:52:53;6.57;;;4.10;;
15381;SDS011;7789;51.364;12.358;2024-01-30T13:57:58;8.50;;;4.05;;
15381;SDS011;7789;51.364;12.358;2024-01-30T14:03:09;6.57;;;4.22;;
15381;SDS011;7789;51.364;12.358;2024-01-30T14:08:13;6.13;;;3.70;;
15381;SDS011;7789;51.364;12.358;2024-01-30T14:13:17;6.18;;;4.47;;
15381;SDS011;7789;51.364;12.358;2024-01-30T14:18:22;6.20;;;4.05;;
15381;SDS011;7789;51.364;12.358;2024-01-30T14:23:27;6.68;;;4.75;;
15381;SDS011;7789;51.364;12.358;2024-01-30T14:28:30;8.07;;;4.20;;
15381;SDS011;7789;51.364;12.358;2024-01-30T14:33:40;6.07;;;4.32;;
15381;SDS011;7789;51.364;12.358;2024-01-30T14:38:44;7.25;;;4.03;;
15381;SDS011;7789;51.364;12.358;2024-01-30T14:43:53;6.70;;;4.40;;
15381;SDS011;7789;51.364;12.358;2024-01-30T14:49:00;6.55;;;4.10;;
15381;SDS011;7789;51.364;12.358;2024-01-30T14:54:04;5.90;;;4.20;;
15381;SDS011;7789;51.364;12.358;2024-01-30T14:59:11;6.57;;;4.05;;
15381;SDS011;7789;51.364;12.358;2024-01-30T15:04:23;5.78;;;3.88;;
15381;SDS011;7789;51.364;12.358;2024-01-30T15:09:31;5.53;;;3.92;;
15381;SDS011;7789;51.364;12.358;2024-01-30T15:14:39;7.55;;;3.88;;
15381;SDS011;7789;51.364;12.358;2024-01-30T15:19:44;5.70;;;3.95;;
15381;SDS011;7789;51.364;12.358;2024-01-30T15:24:48;5.80;;;3.85;;
15381;SDS011;7789;51.364;12.358;2024-01-30T15:29:55;7.75;;;4.40;;
15381;SDS011;7789;51.364;12.358;2024-01-30T15:35:04;6.63;;;4.18;;
15381;SDS011;7789;51.364;12.358;2024-01-30T15:40:11;4.38;;;3.95;;
15381;SDS011;7789;51.364;12.358;2024-01-30T15:45:17;8.30;;;3.85;;
15381;SDS011;7789;51.364;12.358;2024-01-30T15:50:23;7.20;;;4.20;;
15381;SDS011;7789;51.364;12.358;2024-01-30T15:55:31;5.90;;;4.15;;
15381;SDS011;7789;51.364;12.358;2024-01-30T16:00:39;8.00;;;4.72;;
15381;SDS011;7789;51.364;12.358;2024-01-30T16:05:44;10.20;;;4.73;;
15381;SDS011;7789;51.364;12.358;2024-01-30T16:10:48;8.00;;;4.50;;
15381;SDS011;7789;51.364;12.358;2024-01-30T16:15:51;6.03;;;4.13;;
15381;SDS011;7789;51.364;12.358;2024-01-30T16:20:56;7.33;;;4.47;;
15381;SDS011;7789;51.364;12.358;2024-01-30T16:25:59;7.43;;;4.57;;
15381;SDS011;7789;51.364;12.358;2024-01-30T16:31:03;7.20;;;4.67;;
15381;SDS011;7789;51.364;12.358;2024-01-30T16:36:09;7.90;;;4.90;;
15381;SDS011;7789;51.364;12.358;2024-01-30T16:41:23;5.97;;;4.23;;
15381;SDS011;7789;51.364;12.358;2024-01-30T16:46:27;6.87;;;4.07;;
15381;SDS011;7789;51.364;12.358;2024-01-30T16:51:33;8.47;;;4.10;;
15381;SDS011;7789;51.364;12.358;2024-01-30T16:56:36;6.80;;;5.07;;
15381;SDS011;7789;51.364;12.358;2024-01-30T17:01:49;7.77;;;4.93;;
15381;SDS011;7789;51.364;12.358;2024-01-30T17:06:54;7.73;;;5.20;;
15381;SDS011;7789;51.364;12.358;2024-01-30T17:12:01;8.43;;;5.17;;
15381;SDS011;7789;51.364;12.358;2024-01-30T17:17:05;5.67;;;4.37;;
15381;SDS011;7789;51.364;12.358;2024-01-30T17:22:16;7.83;;;5.03;;
15381;SDS011;7789;51.364;12.358;2024-01-30T17:27:20;7.07;;;4.97;;
15381;SDS011;7789;51.364;12.358;2024-01-30T17:32:23;7.47;;;5.30;;
15381;SDS011;7789;51.364;12.358;2024-01-30T17:37:29;8.93;;;5.37;;
15381;SDS011;7789;51.364;12.358;2024-01-30T17:42:37;8.13;;;5.30;;
15381;SDS011;7789;51.364;12.358;2024-01-30T17:47:40;7.03;;;5.17;;
15381;SDS011;7789;51.364;12.358;2024-01-30T17:52:45;7.47;;;5.30;;
15381;SDS011;7789;51.364;12.358;2024-01-30T17:57:50;9.23;;;5.63;;
15381;SDS011;7789;51.364;12.358;2024-01-30T18:02:54;9.77;;;6.20;;
15381;SDS011;7789;51.364;12.358;2024-01-30T18:08:00;10.13;;;5.97;;
15381;SDS011;7789;51.364;12.358;2024-01-30T18:13:03;9.70;;;5.50;;
15381;SDS011;7789;51.364;12.358;2024-01-30T18:18:12;11.23;;;6.13;;
15381;SDS011;7789;51.364;12.358;2024-01-30T18:23:19;7.27;;;5.77;;
15381;SDS011;7789;51.364;12.358;2024-01-30T18:28:24;8.27;;;5.80;;
15381;SDS011;7789;51.364;12.358;2024-01-30T18:33:30;10.40;;;5.67;;
15381;SDS011;7789;51.364;12.358;2024-01-30T18:38:36;7.97;;;5.87;;
15381;SDS011;7789;51.364;12.358;2024-01-30T18:43:40;9.97;;;6.57;;
15381;SDS011;7789;51.364;12.358;2024-01-30T18:48:44;9.07;;;7.30;;
15381;SDS011;7789;51.364;12.358;2024-01-30T18:53:53;7.17;;;5.20;;
15381;SDS011;7789;51.364;12.358;2024-01-30T18:58:56;8.50;;;5.70;;
15381;SDS011;7789;51.364;12.358;2024-01-30T19:03:59;7.83;;;6.10;;
15381;SDS011;7789;51.364;12.358;2024-01-30T19:09:08;8.97;;;6.50;;
15381;SDS011;7789;51.364;12.358;2024-01-30T19:14:12;12.23;;;6.87;;
15381;SDS011;7789;51.364;12.358;2024-01-30T19:19:16;10.40;;;6.50;;
15381;SDS011;7789;51.364;12.358;2024-01-30T19:24:24;9.87;;;5.97;;
15381;SDS011;7789;51.364;12.358;2024-01-30T19:29:28;9.43;;;6.53;;
15381;SDS011;7789;51.364;12.358;2024-01-30T19:34:32;10.33;;;7.13;;
15381;SDS011;7789;51.364;12.358;2024-01-30T19:39:37;10.83;;;6.13;;
15381;SDS011;7789;51.364;12.358;2024-01-30T19:44:41;17.00;;;6.57;;
15381;SDS011;7789;51.364;12.358;2024-01-30T19:49:45;10.17;;;6.73;;
15381;SDS011;7789;51.364;12.358;2024-01-30T19:54:50;8.53;;;6.27;;
15381;SDS011;7789;51.364;12.358;2024-01-30T19:59:53;10.13;;;6.27;;
15381;SDS011;7789;51.364;12.358;2024-01-30T20:04:57;8.00;;;6.30;;
15381;SDS011;7789;51.364;12.358;2024-01-30T20:10:03;11.07;;;6.80;;
15381;SDS011;7789;51.364;12.358;2024-01-30T20:15:10;11.33;;;7.07;;
15381;SDS011;7789;51.364;12.358;2024-01-30T20:20:16;13.07;;;6.90;;
15381;SDS011;7789;51.364;12.358;2024-01-30T20:25:21;11.40;;;6.67;;
15381;SDS011;7789;51.364;12.358;2024-01-30T20:30:24;14.40;;;6.40;;
15381;SDS011;7789;51.364;12.358;2024-01-30T20:35:28;9.83;;;6.17;;
15381;SDS011;7789;51.364;12.358;2024-01-30T20:40:33;6.40;;;5.20;;
15381;SDS011;7789;51.364;12.358;2024-01-30T20:45:37;7.70;;;5.40;;
15381;SDS011;7789;51.364;12.358;2024-01-30T20:50:41;10.40;;;6.30;;
15381;SDS011;7789;51.364;12.358;2024-01-30T20:55:46;8.53;;;5.87;;
15381;SDS011;7789;51.364;12.358;2024-01-30T21:00:50;6.67;;;5.97;;
15381;SDS011;7789;51.364;12.358;2024-01-30T21:05:54;7.53;;;5.83;;
15381;SDS011;7789;51.364;12.358;2024-01-30T21:10:59;10.10;;;6.43;;
15381;SDS011;7789;51.364;12.358;2024-01-30T21:16:05;10.53;;;6.73;;
15381;SDS011;7789;51.364;12.358;2024-01-30T21:21:09;8.80;;;6.50;;
15381;SDS011;7789;51.364;12.358;2024-01-30T21:26:14;9.33;;;6.27;;
15381;SDS011;7789;51.364;12.358;2024-01-30T21:31:17;7.50;;;6.43;;
15381;SDS011;7789;51.364;12.358;2024-01-30T21:36:21;9.23;;;7.10;;
15381;SDS011;7789;51.364;12.358;2024-01-30T21:41:26;10.00;;;6.53;;
15381;SDS011;7789;51.364;12.358;2024-01-30T21:46:29;12.67;;;7.10;;
15381;SDS011;7789;51.364;12.358;2024-01-30T21:51:32;6.53;;;5.80;;
15381;SDS011;7789;51.364;12.358;2024-01-30T21:56:38;7.80;;;6.00;;
15381;SDS011;7789;51.364;12.358;2024-01-30T22:01:41;9.20;;;6.13;;
15381;SDS011;7789;51.364;12.358;2024-01-30T22:06:45;10.23;;;6.10;;
15381;SDS011;7789;51.364;12.358;2024-01-30T22:11:50;7.53;;;5.87;;
15381;SDS011;7789;51.364;12.358;2024-01-30T22:16:54;9.83;;;6.23;;
15381;SDS011;7789;51.364;12.358;2024-01-30T22:21:58;8.07;;;6.03;;
15381;SDS011;7789;51.364;12.358;2024-01-30T22:27:03;7.37;;;5.73;;
15381;SDS011;7789;51.364;12.358;2024-01-30T22:32:07;8.73;;;6.30;;
15381;SDS011;7789;51.364;12.358;2024-01-30T22:37:10;7.23;;;5.63;;
15381;SDS011;7789;51.364;12.358;2024-01-30T22:42:15;8.47;;;5.67;;
15381;SDS011;7789;51.364;12.358;2024-01-30T22:47:19;8.27;;;5.67;;
15381;SDS011;7789;51.364;12.358;2024-01-30T22:52:22;6.43;;;4.93;;
15381;SDS011;7789;51.364;12.358;2024-01-30T22:57:27;8.70;;;5.20;;
15381;SDS011;7789;51.364;12.358;2024-01-30T23:02:31;8.73;;;5.63;;
15381;SDS011;7789;51.364;12.358;2024-01-30T23:07:35;7.87;;;5.23;;
15381;SDS011;7789;51.364;12.358;2024-01-30T23:12:43;13.47;;;6.23;;
15381;SDS011;7789;51.364;12.358;2024-01-30T23:17:47;7.83;;;5.17;;
15381;SDS011;7789;51.364;12.358;2024-01-30T23:22:51;7.77;;;5.40;;
15381;SDS011;7789;51.364;12.358;2024-01-30T23:27:56;9.47;;;5.93;;
15381;SDS011;7789;51.364;12.358;2024-01-30T23:32:59;9.60;;;5.70;;
15381;SDS011;7789;51.364;12.358;2024-01-30T23:38:04;8.20;;;5.00;;
15381;SDS011;7789;51.364;12.358;2024-01-30T23:43:09;9.67;;;5.70;;
15381;SDS011;7789;51.364;12.358;2024-01-30T23:48:13;5.67;;;4.73;;
15381;SDS011;7789;51.364;12.358;2024-01-30T23:53:17;7.43;;;5.77;;
15381;SDS011;7789;51.364;12.358;2024-01-30T23:58:22;6.17;;;5.40;;
